Asukamaru — JG5536 — position and weather

sailwx.info

Track history (hours):
 
Tides and Currents Weather Stations Pressure Air Temp Water Temp Dewpoint Dewpoint Depression Visibility Wind Speed Wind Dir Waves Ship Positions

Asukamaru

Last reported at 2017-Aug-22 01:30 UTC. Time now 2017-Aug-22 01:28 UTC.
Position N 35°38' E 139°45'.

Length 31 m; draft 3 m.

Type: Tug. MMSI: 431001145.

Date/timePositionNaut miles runAvg speedWind from/ knotsBaromVisibWave heightAir tempDewpointWater temp
2017-Aug-22 01:30N 35°38' E 139°45'0 0.0
2017-Aug-22 00:58N 35°38' E 139°45'0 0.0
2017-Aug-22 00:25N 35°38' E 139°45'0 0.0
2017-Aug-22 00:01N 35°38' E 139°45'0 0.0
2017-Aug-21 23:30N 35°38' E 139°45'0 0.1
2017-Aug-21 22:58N 35°38' E 139°46'3 6.1
2017-Aug-21 22:30N 35°36' E 139°48'1 2.2
2017-Aug-21 22:01N 35°35' E 139°48'1 2.5
2017-Aug-21 21:31N 35°36' E 139°47'0 0.0
2017-Aug-21 21:00N 35°36' E 139°47'1 1.4
2017-Aug-21 20:31N 35°36' E 139°46'1 2.2
2017-Aug-21 20:00N 35°37' E 139°46'1 2.0
2017-Aug-21 19:30N 35°38' E 139°45'0 0.0
2017-Aug-21 19:01N 35°38' E 139°45'0 0.0
2017-Aug-21 18:31N 35°38' E 139°45'0 0.0
2017-Aug-21 18:00N 35°38' E 139°45'0 0.0
2017-Aug-21 17:30N 35°38' E 139°45'0 0.0
2017-Aug-21 17:01N 35°38' E 139°45'0 0.0
2017-Aug-21 16:29N 35°38' E 139°45'0 0.0
2017-Aug-21 16:00N 35°38' E 139°45'0 0.0
2017-Aug-21 15:31N 35°38' E 139°45'0 0.0
2017-Aug-21 14:58N 35°38' E 139°45'0 0.0
2017-Aug-21 14:30N 35°38' E 139°45'0 0.0
2017-Aug-21 14:01N 35°38' E 139°45'0 0.0
2017-Aug-21 13:31N 35°38' E 139°45'0 0.0
2017-Aug-21 13:00N 35°38' E 139°45'0 0.0
2017-Aug-21 12:30N 35°38' E 139°45'0 0.0
2017-Aug-21 11:58N 35°38' E 139°45'0 0.1
2017-Aug-21 11:28N 35°38' E 139°46'0 0.1
2017-Aug-21 11:01N 35°38' E 139°45'0 0.0
2017-Aug-21 10:29N 35°38' E 139°45'0 0.0
2017-Aug-21 10:00N 35°38' E 139°45'0 0.0
2017-Aug-21 09:31N 35°38' E 139°45'0 0.0
2017-Aug-21 09:00N 35°38' E 139°45'0 0.0
2017-Aug-21 08:23N 35°38' E 139°45'0 0.0
2017-Aug-21 07:54N 35°38' E 139°45'0 0.0
2017-Aug-21 07:28N 35°38' E 139°45'0 0.0
2017-Aug-21 06:57N 35°38' E 139°45'0 0.0
2017-Aug-21 06:30N 35°38' E 139°45'0 0.1
2017-Aug-21 06:00N 35°38' E 139°46'0 0.1
2017-Aug-21 05:29N 35°38' E 139°45'0 0.0
2017-Aug-21 04:56N 35°38' E 139°45'0 0.0
2017-Aug-21 04:30N 35°38' E 139°45'0 0.0
2017-Aug-21 03:49N 35°38' E 139°45'0 0.0
2017-Aug-21 03:29N 35°38' E 139°45'0 0.0
2017-Aug-21 02:56N 35°38' E 139°45'0 0.0
2017-Aug-21 02:27N 35°38' E 139°45'0 0.0
2017-Aug-21 01:59N 35°38' E 139°45'0 0.0
2017-Aug-21 01:04N 35°38' E 139°45'0 0.0
2017-Aug-21 00:46N 35°38' E 139°45'0 0.0
2017-Aug-21 00:30N 35°38' E 139°45'0 0.0
2017-Aug-20 23:59N 35°38' E 139°45'0 0.0
2017-Aug-20 23:29N 35°38' E 139°45'0 0.0
2017-Aug-20 22:59N 35°38' E 139°45'0 0.0
2017-Aug-20 22:30N 35°38' E 139°45'0 0.0
2017-Aug-20 22:01N 35°38' E 139°45'0 0.0
2017-Aug-20 21:31N 35°38' E 139°45'0 0.0
2017-Aug-20 21:00N 35°38' E 139°45'0 0.0
2017-Aug-20 20:31N 35°38' E 139°45'0 0.0
2017-Aug-20 20:01N 35°38' E 139°45'0 0.0
2017-Aug-20 19:31N 35°38' E 139°45'0 0.0
2017-Aug-20 19:01N 35°38' E 139°45'0 0.0
2017-Aug-20 18:30N 35°38' E 139°45'0 0.0
2017-Aug-20 18:01N 35°38' E 139°45'0 0.0
2017-Aug-20 17:31N 35°38' E 139°45'0 0.0
2017-Aug-20 17:01N 35°38' E 139°45'0 0.0
2017-Aug-20 16:31N 35°38' E 139°45'0 0.0
2017-Aug-20 16:01N 35°38' E 139°45'0 0.0
2017-Aug-20 15:31N 35°38' E 139°45'0 0.0
2017-Aug-20 15:00N 35°38' E 139°45'0 0.0
2017-Aug-20 14:31N 35°38' E 139°45'0 0.0
2017-Aug-20 14:01N 35°38' E 139°45'0 0.0
2017-Aug-20 13:31N 35°38' E 139°45'0 0.0
2017-Aug-20 13:01N 35°38' E 139°45'0 0.0
2017-Aug-20 12:31N 35°38' E 139°45'0 0.0
2017-Aug-20 12:01N 35°38' E 139°45'0 0.0
2017-Aug-20 11:30N 35°38' E 139°45'0 0.1
2017-Aug-20 11:00N 35°38' E 139°46'0 0.1
2017-Aug-20 10:31N 35°38' E 139°45'2 3.2
2017-Aug-20 10:01N 35°37' E 139°46'0 0.6
2017-Aug-20 09:31N 35°36' E 139°46'2 4.8
2017-Aug-20 09:01N 35°35' E 139°48'1 2.5
2017-Aug-20 08:30N 35°35' E 139°47'3 5.6
2017-Aug-20 07:59N 35°38' E 139°45'0 0.0
2017-Aug-20 07:30N 35°38' E 139°45'0 0.0
2017-Aug-20 06:56N 35°38' E 139°45'0 0.0
2017-Aug-20 06:30N 35°38' E 139°45'0 0.0
2017-Aug-20 06:00N 35°38' E 139°45'0 0.0
2017-Aug-20 05:31N 35°38' E 139°45'0 0.0
2017-Aug-20 05:01N 35°38' E 139°45'0 0.0
2017-Aug-20 04:30N 35°38' E 139°45'0 0.0
2017-Aug-20 04:00N 35°38' E 139°45'0 0.0
2017-Aug-20 03:25N 35°38' E 139°45'0 0.0
2017-Aug-20 02:55N 35°38' E 139°45'0 0.0
2017-Aug-20 01:30N 35°38' E 139°45'0 0.0
2017-Aug-20 00:58N 35°38' E 139°45'0 0.0
2017-Aug-20 00:30N 35°38' E 139°45'0 0.0
2017-Aug-19 23:59N 35°38' E 139°45'1 1.3
2017-Aug-19 23:31N 35°38' E 139°46'1 2.9
2017-Aug-19 23:01N 35°36' E 139°46'2 3.9
2017-Aug-19 22:30N 35°35' E 139°48'1 2.8
2017-Aug-19 22:00N 35°36' E 139°46'0 0.0
2017-Aug-19 21:30N 35°36' E 139°46'0 0.0
2017-Aug-19 21:01N 35°36' E 139°46'1 1.7
2017-Aug-19 20:30N 35°36' E 139°47'2 4.4
2017-Aug-19 20:00N 35°38' E 139°45'3 5.2
2017-Aug-19 19:30N 35°36' E 139°47'1 2.2
2017-Aug-19 19:01N 35°37' E 139°46'1 1.0
2017-Aug-19 18:31N 35°37' E 139°46'1 2.2
2017-Aug-19 18:01N 35°38' E 139°45'0 0.0
2017-Aug-19 17:31N 35°38' E 139°45'0 0.0
2017-Aug-19 17:00N 35°38' E 139°45'0 0.0
2017-Aug-19 16:31N 35°38' E 139°45'0 0.0
2017-Aug-19 16:01N 35°38' E 139°45'0 0.0
2017-Aug-19 15:31N 35°38' E 139°45'0 0.0
2017-Aug-19 15:01N 35°38' E 139°45'0 0.0
2017-Aug-19 14:01N 35°38' E 139°46'0 0.1
2017-Aug-19 13:24N 35°38' E 139°45'0 0.0
2017-Aug-19 12:52N 35°38' E 139°45'0 0.0
2017-Aug-19 12:29N 35°38' E 139°45'0 0.0
2017-Aug-19 11:55N 35°38' E 139°45'0 0.0
2017-Aug-19 11:15N 35°38' E 139°45'0 0.0
2017-Aug-19 11:00N 35°38' E 139°45'0 0.0
2017-Aug-19 10:30N 35°38' E 139°45'0 0.0
2017-Aug-19 09:57N 35°38' E 139°45'0 0.0
2017-Aug-19 09:30N 35°38' E 139°45'0 0.0
2017-Aug-19 09:01N 35°38' E 139°45'0 0.0
2017-Aug-19 08:29N 35°38' E 139°45'0 0.0
2017-Aug-19 08:01N 35°38' E 139°45'0 0.0
2017-Aug-19 07:31N 35°38' E 139°45'0 0.0
2017-Aug-19 07:00N 35°38' E 139°45'0 0.0
2017-Aug-19 06:31N 35°38' E 139°45'0 0.0
2017-Aug-19 06:00N 35°38' E 139°45'0 0.0
2017-Aug-19 05:30N 35°38' E 139°45'0 0.0
2017-Aug-19 05:00N 35°38' E 139°45'0 0.0
2017-Aug-19 04:30N 35°38' E 139°45'0 0.0
2017-Aug-19 04:00N 35°38' E 139°45'0 0.0
2017-Aug-19 03:30N 35°38' E 139°45'0 0.0
2017-Aug-19 03:00N 35°38' E 139°45'0 0.0
2017-Aug-19 02:31N 35°38' E 139°45'0 0.0
2017-Aug-19 02:00N 35°38' E 139°45'0 0.0
2017-Aug-19 01:30N 35°38' E 139°45'0 0.0
2017-Aug-19 01:00N 35°38' E 139°45'0 0.0
2017-Aug-19 00:30N 35°38' E 139°45'1 3.0
2017-Aug-19 00:01N 35°37' E 139°46'1 2.1
2017-Aug-18 23:31N 35°36' E 139°47'2 3.3
2017-Aug-18 23:01N 35°35' E 139°48'3 6.2
2017-Aug-18 22:31N 35°37' E 139°46'1 2.0
2017-Aug-18 21:58N 35°38' E 139°45'0 0.0
2017-Aug-18 21:26N 35°38' E 139°45'0 0.0
2017-Aug-18 21:00N 35°38' E 139°45'0 0.0
2017-Aug-18 20:30N 35°38' E 139°45'0 0.0
2017-Aug-18 20:00N 35°38' E 139°45'0 0.0
2017-Aug-18 19:30N 35°38' E 139°45'0 0.0
2017-Aug-18 19:01N 35°38' E 139°45'0 0.0
2017-Aug-18 18:30N 35°38' E 139°45'0 0.0
2017-Aug-18 18:01N 35°38' E 139°45'0 0.0
2017-Aug-18 17:31N 35°38' E 139°45'0 0.0
2017-Aug-18 17:00N 35°38' E 139°45'0 0.0
2017-Aug-18 16:31N 35°38' E 139°45'0 0.0
2017-Aug-18 16:01N 35°38' E 139°45'0 0.0
2017-Aug-18 15:30N 35°38' E 139°45'0 0.0
2017-Aug-18 14:58N 35°38' E 139°45'0 0.0
2017-Aug-18 14:30N 35°38' E 139°45'0 0.0
2017-Aug-18 12:53N 35°38' E 139°45'0 0.0
2017-Aug-18 12:30N 35°38' E 139°45'0 0.0
2017-Aug-18 11:56N 35°38' E 139°45'0 0.0
2017-Aug-18 11:30N 35°38' E 139°45'0 0.0
2017-Aug-18 10:25N 35°38' E 139°45'1 3.3
2017-Aug-18 10:00N 35°37' E 139°46'1 2.2
2017-Aug-18 09:31N 35°36' E 139°47'1 2.2
2017-Aug-18 09:00N 35°35' E 139°48'0 0.5
2017-Aug-18 08:31N 35°35' E 139°47'1 1.2
2017-Aug-18 08:00N 35°35' E 139°47'0 0.0
2017-Aug-18 07:30N 35°35' E 139°47'1 1.5
2017-Aug-18 07:01N 35°36' E 139°46'1 2.3
2017-Aug-18 06:30N 35°37' E 139°46'1 1.7
2017-Aug-18 05:52N 35°38' E 139°45'0 0.0
2017-Aug-18 05:28N 35°38' E 139°45'0 0.0
2017-Aug-18 04:57N 35°38' E 139°45'0 0.0
2017-Aug-18 03:56N 35°38' E 139°45'0 0.0
2017-Aug-18 03:21N 35°38' E 139°45'0 0.0
2017-Aug-18 02:59N 35°38' E 139°45'0 0.0
2017-Aug-18 02:29N 35°38' E 139°45'0 0.0
2017-Aug-18 01:57N 35°38' E 139°45'0 0.0
2017-Aug-18 01:21N 35°38' E 139°45'0 0.0
2017-Aug-17 21:46N 35°38' E 139°45'0 0.0
2017-Aug-17 21:13N 35°38' E 139°45'0 0.0
2017-Aug-17 20:58N 35°38' E 139°45'0 0.0
2017-Aug-17 20:28N 35°38' E 139°45'0 0.0
2017-Aug-17 19:59N 35°38' E 139°45'0 0.0
2017-Aug-17 19:30N 35°38' E 139°45'0 0.0
2017-Aug-17 19:00N 35°38' E 139°45'0 0.0
2017-Aug-17 18:30N 35°38' E 139°45'0 0.0
2017-Aug-17 18:01N 35°38' E 139°45'0 0.0
2017-Aug-17 17:30N 35°38' E 139°45'0 0.0
2017-Aug-17 17:01N 35°38' E 139°45'0 0.0
2017-Aug-17 16:31N 35°38' E 139°45'0 0.0
2017-Aug-17 16:01N 35°38' E 139°45'0 0.0
2017-Aug-17 15:31N 35°38' E 139°45'0 0.1
2017-Aug-17 15:01N 35°38' E 139°46'0 0.1
2017-Aug-17 14:31N 35°38' E 139°45'0 0.0
2017-Aug-17 14:01N 35°38' E 139°45'0 0.0
2017-Aug-17 13:30N 35°38' E 139°45'0 0.3
2017-Aug-17 13:00N 35°38' E 139°45'2 3.7
2017-Aug-17 12:31N 35°37' E 139°47'1 2.1
2017-Aug-17 12:01N 35°36' E 139°47'1 2.3
2017-Aug-17 11:27N 35°34' E 139°48'2 3.9
2017-Aug-17 11:00N 35°36' E 139°46'0 0.0
2017-Aug-17 10:31N 35°36' E 139°46'0 0.0
2017-Aug-17 10:00N 35°36' E 139°46'0 0.0
2017-Aug-17 09:30N 35°36' E 139°46'1 1.8
2017-Aug-17 09:00N 35°36' E 139°47'0 0.5
2017-Aug-17 08:30N 35°36' E 139°47'2 3.7
2017-Aug-17 08:01N 35°35' E 139°48'2 4.9
2017-Aug-17 07:31N 35°36' E 139°46'2 3.3
2017-Aug-17 06:57N 35°38' E 139°45'0 0.0
2017-Aug-17 06:30N 35°38' E 139°45'0 0.0
2017-Aug-17 05:58N 35°38' E 139°45'0 0.0
2017-Aug-17 05:27N 35°38' E 139°45'0 0.0
2017-Aug-17 05:00N 35°38' E 139°45'0 0.0
2017-Aug-17 04:30N 35°38' E 139°45'0 0.0
2017-Aug-17 04:00N 35°38' E 139°45'0 0.0
2017-Aug-17 03:28N 35°38' E 139°45'0 0.0
2017-Aug-17 02:59N 35°38' E 139°45'0 0.0
2017-Aug-17 02:30N 35°38' E 139°45'0 0.0
2017-Aug-17 01:56N 35°38' E 139°45'0 0.0
2017-Aug-17 01:28N 35°38' E 139°45'0 0.0
2017-Aug-17 00:59N 35°38' E 139°45'0 0.0
2017-Aug-17 00:28N 35°38' E 139°45'0 0.0
2017-Aug-16 23:57N 35°38' E 139°45'0 0.0
2017-Aug-16 23:28N 35°38' E 139°45'0 0.0
2017-Aug-16 23:00N 35°38' E 139°45'0 0.0
2017-Aug-16 22:30N 35°38' E 139°45'0 0.0
2017-Aug-16 22:01N 35°38' E 139°45'0 0.0
2017-Aug-16 21:30N 35°38' E 139°45'0 0.0
2017-Aug-16 21:00N 35°38' E 139°45'0 0.0
2017-Aug-16 20:29N 35°38' E 139°45'0 0.0
2017-Aug-16 20:00N 35°38' E 139°45'0 0.0
2017-Aug-16 19:30N 35°38' E 139°45'0 0.0
2017-Aug-16 18:59N 35°38' E 139°45'0 0.0
2017-Aug-16 18:30N 35°38' E 139°45'0 0.1
2017-Aug-16 18:00N 35°38' E 139°46'0 0.1
2017-Aug-16 17:30N 35°38' E 139°45'0 0.0
2017-Aug-16 17:00N 35°38' E 139°45'0 0.0
2017-Aug-16 16:31N 35°38' E 139°45'0 0.0
2017-Aug-16 16:01N 35°38' E 139°45'0 0.0
2017-Aug-16 15:30N 35°38' E 139°45'0 0.0
2017-Aug-16 14:54N 35°38' E 139°45'0 0.0
2017-Aug-16 14:27N 35°38' E 139°45'0 0.0
2017-Aug-16 14:00N 35°38' E 139°45'0 0.0
2017-Aug-16 13:29N 35°38' E 139°45'0 0.0
2017-Aug-16 12:58N 35°38' E 139°45'0 0.0
2017-Aug-16 12:30N 35°38' E 139°45'0 0.0
2017-Aug-16 11:58N 35°38' E 139°45'0 0.0
2017-Aug-16 11:30N 35°38' E 139°45'0 0.0
2017-Aug-16 11:00N 35°38' E 139°45'3 5.1
2017-Aug-16 10:31N 35°36' E 139°47'1 1.8
2017-Aug-16 10:00N 35°37' E 139°46'1 2.1
2017-Aug-16 09:30N 35°38' E 139°46'1 1.3
2017-Aug-16 09:01N 35°38' E 139°46'0 0.1
2017-Aug-16 08:31N 35°38' E 139°45'0 0.0
2017-Aug-16 08:00N 35°38' E 139°45'1 1.1
2017-Aug-16 07:30N 35°38' E 139°46'1 1.7
2017-Aug-16 07:00N 35°39' E 139°46'0 0.0
2017-Aug-16 06:30N 35°39' E 139°46'0 0.0
2017-Aug-16 06:00N 35°39' E 139°46'0 0.0
2017-Aug-16 05:31N 35°39' E 139°46'1 1.1
2017-Aug-16 05:00N 35°39' E 139°46'1 1.7
2017-Aug-16 04:30N 35°38' E 139°45'0 0.0
2017-Aug-16 04:01N 35°38' E 139°45'0 0.0
2017-Aug-16 03:30N 35°38' E 139°45'0 0.0
2017-Aug-16 03:00N 35°38' E 139°45'0 0.0
2017-Aug-16 02:30N 35°38' E 139°45'0 0.0
2017-Aug-16 02:00N 35°38' E 139°45'0 0.0
2017-Aug-16 01:31N 35°38' E 139°45'0 0.0
2017-Aug-16 01:01N 35°38' E 139°45'0 0.0
2017-Aug-16 00:30N 35°38' E 139°45'0 0.0
2017-Aug-16 00:01N 35°38' E 139°45'0 0.0
2017-Aug-15 23:30N 35°38' E 139°45'0 0.0
2017-Aug-15 22:58N 35°38' E 139°45'0 0.0
2017-Aug-15 22:29N 35°38' E 139°45'0 0.0
2017-Aug-15 22:00N 35°38' E 139°45'0 0.0
2017-Aug-15 21:30N 35°38' E 139°45'0 0.0
2017-Aug-15 21:00N 35°38' E 139°45'0 0.0
2017-Aug-15 20:31N 35°38' E 139°45'0 0.0
2017-Aug-15 20:01N 35°38' E 139°45'0 0.0
2017-Aug-15 19:31N 35°38' E 139°45'0 0.0
2017-Aug-15 19:01N 35°38' E 139°45'0 0.0
2017-Aug-15 18:31N 35°38' E 139°45'0 0.0
2017-Aug-15 18:01N 35°38' E 139°45'0 0.0
2017-Aug-15 17:31N 35°38' E 139°45'0 0.0
2017-Aug-15 17:01N 35°38' E 139°45'0 0.0
2017-Aug-15 16:31N 35°38' E 139°45'0 0.0
2017-Aug-15 16:01N 35°38' E 139°45'0 0.0
2017-Aug-15 15:31N 35°38' E 139°45'0 0.0
2017-Aug-15 15:01N 35°38' E 139°45'0 0.0
2017-Aug-15 14:30N 35°38' E 139°45'0 0.0
2017-Aug-15 14:01N 35°38' E 139°45'0 0.0
2017-Aug-15 13:31N 35°38' E 139°45'0 0.0
2017-Aug-15 13:01N 35°38' E 139°45'0 0.0
2017-Aug-15 12:29N 35°38' E 139°45'0 0.0
2017-Aug-15 12:01N 35°38' E 139°45'0 0.1
2017-Aug-15 11:31N 35°38' E 139°46'0 0.1
2017-Aug-15 11:00N 35°38' E 139°45'0 0.0
2017-Aug-15 10:30N 35°38' E 139°45'0 0.0
2017-Aug-15 10:01N 35°38' E 139°45'0 0.0
2017-Aug-15 09:29N 35°38' E 139°45'3 5.5
2017-Aug-15 09:00N 35°36' E 139°46'1 1.7
2017-Aug-15 08:30N 35°35' E 139°47'2 3.3
2017-Aug-15 08:00N 35°34' E 139°49'2 3.6
2017-Aug-15 07:31N 35°36' E 139°47'0 0.9
2017-Aug-15 07:01N 35°36' E 139°48'1 2.3
2017-Aug-15 06:30N 35°35' E 139°48'0 0.8
2017-Aug-15 06:01N 35°35' E 139°47'3 6.4
2017-Aug-15 05:31N 35°38' E 139°46'0 0.9
2017-Aug-15 05:00N 35°38' E 139°45'0 0.0
2017-Aug-15 04:30N 35°38' E 139°45'0 0.0
2017-Aug-15 03:50N 35°38' E 139°45'0 0.0
2017-Aug-15 03:31N 35°38' E 139°45'0 0.0
2017-Aug-15 03:00N 35°38' E 139°45'0 0.0
2017-Aug-15 02:30N 35°38' E 139°45'0 0.0
2017-Aug-15 02:01N 35°38' E 139°45'0 0.0
2017-Aug-15 01:30N 35°38' E 139°45'0 0.0
2017-Aug-15 01:00N 35°38' E 139°45'0 0.0
2017-Aug-15 00:31N 35°38' E 139°45'0 0.0
2017-Aug-15 00:01N 35°38' E 139°45'0 0.0
2017-Aug-14 23:30N 35°38' E 139°45'0 0.0
2017-Aug-14 23:01N 35°38' E 139°45'0 0.0
2017-Aug-14 22:30N 35°38' E 139°45'0 0.0
2017-Aug-14 21:59N 35°38' E 139°45'0 0.0
2017-Aug-14 21:31N 35°38' E 139°45'0 0.0
2017-Aug-14 21:01N 35°38' E 139°45'0 0.0
2017-Aug-14 20:31N 35°38' E 139°45'0 0.0
2017-Aug-14 20:00N 35°38' E 139°45'2 4.9
2017-Aug-14 19:31N 35°36' E 139°47'0 0.5
2017-Aug-14 19:00N 35°36' E 139°47'2 4.4
2017-Aug-14 18:30N 35°38' E 139°45'0 0.0
2017-Aug-14 18:01N 35°38' E 139°45'0 0.0
2017-Aug-14 17:30N 35°38' E 139°45'0 0.0
2017-Aug-14 17:01N 35°38' E 139°45'0 0.0
2017-Aug-14 16:31N 35°38' E 139°45'0 0.0
2017-Aug-14 16:01N 35°38' E 139°45'0 0.0
2017-Aug-14 15:30N 35°38' E 139°45'0 0.0
2017-Aug-14 15:00N 35°38' E 139°45'0 0.0
2017-Aug-14 14:30N 35°38' E 139°45'0 0.0
2017-Aug-14 14:00N 35°38' E 139°45'0 0.0
2017-Aug-14 13:30N 35°38' E 139°45'0 0.0
2017-Aug-14 13:00N 35°38' E 139°45'0 0.0
2017-Aug-14 12:31N 35°38' E 139°45'0 0.0
2017-Aug-14 12:00N 35°38' E 139°45'0 0.0
2017-Aug-14 11:31N 35°38' E 139°45'0 0.0
2017-Aug-14 11:00N 35°38' E 139°45'0 0.0
2017-Aug-14 10:31N 35°38' E 139°45'0 0.0
2017-Aug-14 10:01N 35°38' E 139°45'0 0.0
2017-Aug-14 09:30N 35°38' E 139°45'0 0.0
2017-Aug-14 09:01N 35°38' E 139°45'0 0.0
2017-Aug-14 08:31N 35°38' E 139°45'0 0.0
2017-Aug-14 08:00N 35°38' E 139°45'0 0.1
2017-Aug-14 07:30N 35°38' E 139°46'0 0.1
2017-Aug-14 07:00N 35°38' E 139°45'0 0.0
2017-Aug-14 06:31N 35°38' E 139°45'0 0.0
2017-Aug-14 06:00N 35°38' E 139°45'0 0.0
2017-Aug-14 05:30N 35°38' E 139°45'0 0.0
2017-Aug-14 04:58N 35°38' E 139°45'0 0.0
2017-Aug-14 04:29N 35°38' E 139°45'0 0.1
2017-Aug-14 04:00N 35°38' E 139°46'0 0.1
2017-Aug-14 03:30N 35°38' E 139°45'0 0.0
2017-Aug-14 02:57N 35°38' E 139°45'0 0.0
2017-Aug-14 02:30N 35°38' E 139°45'0 0.0
2017-Aug-14 02:01N 35°38' E 139°45'0 0.0
2017-Aug-14 01:31N 35°38' E 139°45'0 0.0
2017-Aug-14 01:01N 35°38' E 139°45'0 0.0
2017-Aug-14 00:31N 35°38' E 139°45'0 0.0
2017-Aug-14 00:01N 35°38' E 139°45'0 0.0
2017-Aug-13 23:30N 35°38' E 139°45'3 5.6
2017-Aug-13 23:01N 35°36' E 139°47'0 0.8
2017-Aug-13 22:31N 35°35' E 139°47'1 2.9
2017-Aug-13 22:00N 35°35' E 139°48'2 3.1
2017-Aug-13 21:31N 35°36' E 139°47'3 5.3
2017-Aug-13 21:00N 35°38' E 139°46'0 0.2
2017-Aug-13 20:31N 35°38' E 139°45'0 0.0
2017-Aug-13 20:00N 35°38' E 139°45'0 0.0
2017-Aug-13 19:30N 35°38' E 139°45'0 0.0
2017-Aug-13 19:01N 35°38' E 139°45'0 0.0
2017-Aug-13 18:31N 35°38' E 139°45'0 0.0
2017-Aug-13 18:01N 35°38' E 139°45'0 0.0
2017-Aug-13 17:31N 35°38' E 139°45'0 0.0
2017-Aug-13 17:01N 35°38' E 139°45'0 0.0
2017-Aug-13 16:31N 35°38' E 139°45'0 0.0
2017-Aug-13 16:01N 35°38' E 139°45'0 0.0
2017-Aug-13 15:30N 35°38' E 139°45'0 0.0
2017-Aug-13 15:01N 35°38' E 139°45'0 0.0
2017-Aug-13 14:31N 35°38' E 139°45'0 0.0
2017-Aug-13 14:01N 35°38' E 139°45'0 0.0
2017-Aug-13 13:31N 35°38' E 139°45'0 0.0
2017-Aug-13 13:01N 35°38' E 139°45'0 0.0
2017-Aug-13 12:31N 35°38' E 139°45'0 0.0
2017-Aug-13 12:00N 35°38' E 139°45'0 0.0
2017-Aug-13 11:31N 35°38' E 139°45'0 0.0
2017-Aug-13 11:01N 35°38' E 139°45'0 0.0
2017-Aug-13 10:30N 35°38' E 139°45'0 0.0
2017-Aug-13 10:01N 35°38' E 139°45'0 0.0
2017-Aug-13 09:30N 35°38' E 139°45'2 3.8
2017-Aug-13 09:00N 35°36' E 139°46'1 1.6
2017-Aug-13 08:31N 35°37' E 139°46'1 2.3
2017-Aug-13 08:01N 35°38' E 139°45'0 0.0
2017-Aug-13 07:30N 35°38' E 139°45'0 0.0
2017-Aug-13 06:58N 35°38' E 139°45'0 0.0
2017-Aug-13 06:31N 35°38' E 139°45'0 0.0
2017-Aug-13 06:00N 35°38' E 139°45'0 0.0
2017-Aug-13 05:30N 35°38' E 139°45'0 0.0
2017-Aug-13 04:55N 35°38' E 139°45'0 0.0
2017-Aug-13 04:27N 35°38' E 139°45'0 0.0
2017-Aug-13 04:00N 35°38' E 139°45'0 0.0
2017-Aug-13 03:30N 35°38' E 139°45'0 0.0
2017-Aug-13 03:00N 35°38' E 139°45'0 0.0
2017-Aug-13 02:31N 35°38' E 139°45'0 0.0
2017-Aug-13 02:01N 35°38' E 139°45'0 0.0
2017-Aug-13 01:31N 35°38' E 139°45'0 0.0
2017-Aug-13 01:01N 35°38' E 139°45'0 0.0
2017-Aug-13 00:30N 35°38' E 139°45'1 0.4
2017-Aug-12 23:12N 35°38' E 139°46'2 2.9
2017-Aug-12 22:34N 35°36' E 139°46'1 4.4
2017-Aug-12 22:16N 35°35' E 139°48'1 3.4
2017-Aug-12 22:00N 35°34' E 139°48'3 2.0
2017-Aug-12 20:44N 35°37' E 139°47'0 0.5
2017-Aug-12 20:30N 35°37' E 139°47'1 1.7
2017-Aug-12 20:00N 35°37' E 139°46'1 0.1
2017-Aug-12 12:53N 35°38' E 139°45'0 0.0
2017-Aug-12 12:31N 35°38' E 139°45'0 0.0
2017-Aug-12 12:01N 35°38' E 139°45'0 0.0
2017-Aug-12 11:30N 35°38' E 139°45'0 0.0
2017-Aug-12 11:01N 35°38' E 139°45'0 0.0
2017-Aug-12 10:30N 35°38' E 139°45'0 0.0
2017-Aug-12 10:00N 35°38' E 139°45'0 0.0
2017-Aug-12 09:31N 35°38' E 139°45'0 0.0
2017-Aug-12 09:01N 35°38' E 139°45'0 0.0
2017-Aug-12 08:30N 35°38' E 139°45'0 0.0
2017-Aug-12 08:01N 35°38' E 139°45'0 0.0
2017-Aug-12 07:28N 35°38' E 139°45'0 0.0
2017-Aug-12 07:01N 35°38' E 139°45'0 0.0
2017-Aug-12 06:30N 35°38' E 139°45'0 0.0
2017-Aug-12 05:59N 35°38' E 139°45'0 0.0
2017-Aug-12 05:30N 35°38' E 139°45'0 0.0
2017-Aug-12 04:59N 35°38' E 139°45'0 0.0
2017-Aug-12 04:31N 35°38' E 139°45'0 0.0
2017-Aug-12 03:58N 35°38' E 139°45'0 0.0
2017-Aug-12 03:30N 35°38' E 139°45'0 0.0
2017-Aug-12 02:58N 35°38' E 139°45'0 0.0
2017-Aug-12 02:28N 35°38' E 139°45'0 0.0
2017-Aug-12 01:55N 35°38' E 139°45'0 0.0
2017-Aug-12 01:30N 35°38' E 139°45'  
Track history (hours):
 
Tides and Currents Weather Stations Pressure Air Temp Water Temp Dewpoint Dewpoint Depression Visibility Wind Speed Wind Dir Waves Ship Positions

Asukamaru

Last reported at 2017-Aug-22 01:30 UTC. Time now 2017-Aug-22 01:28 UTC.
Position N 35°38' E 139°45'.

Length 31 m; draft 3 m.

Type: Tug. MMSI: 431001145.

Date/timePositionNaut miles runAvg speedWind from/ knotsBaromVisibWave heightAir tempDewpointWater temp
2017-Aug-22 01:30N 35°38' E 139°45'0 0.0
2017-Aug-22 00:58N 35°38' E 139°45'0 0.0
2017-Aug-22 00:25N 35°38' E 139°45'0 0.0
2017-Aug-22 00:01N 35°38' E 139°45'0 0.0
2017-Aug-21 23:30N 35°38' E 139°45'0 0.1
2017-Aug-21 22:58N 35°38' E 139°46'3 6.1
2017-Aug-21 22:30N 35°36' E 139°48'1 2.2
2017-Aug-21 22:01N 35°35' E 139°48'1 2.5
2017-Aug-21 21:31N 35°36' E 139°47'0 0.0
2017-Aug-21 21:00N 35°36' E 139°47'1 1.4
2017-Aug-21 20:31N 35°36' E 139°46'1 2.2
2017-Aug-21 20:00N 35°37' E 139°46'1 2.0
2017-Aug-21 19:30N 35°38' E 139°45'0 0.0
2017-Aug-21 19:01N 35°38' E 139°45'0 0.0
2017-Aug-21 18:31N 35°38' E 139°45'0 0.0
2017-Aug-21 18:00N 35°38' E 139°45'0 0.0
2017-Aug-21 17:30N 35°38' E 139°45'0 0.0
2017-Aug-21 17:01N 35°38' E 139°45'0 0.0
2017-Aug-21 16:29N 35°38' E 139°45'0 0.0
2017-Aug-21 16:00N 35°38' E 139°45'0 0.0
2017-Aug-21 15:31N 35°38' E 139°45'0 0.0
2017-Aug-21 14:58N 35°38' E 139°45'0 0.0
2017-Aug-21 14:30N 35°38' E 139°45'0 0.0
2017-Aug-21 14:01N 35°38' E 139°45'0 0.0
2017-Aug-21 13:31N 35°38' E 139°45'0 0.0
2017-Aug-21 13:00N 35°38' E 139°45'0 0.0
2017-Aug-21 12:30N 35°38' E 139°45'0 0.0
2017-Aug-21 11:58N 35°38' E 139°45'0 0.1
2017-Aug-21 11:28N 35°38' E 139°46'0 0.1
2017-Aug-21 11:01N 35°38' E 139°45'0 0.0
2017-Aug-21 10:29N 35°38' E 139°45'0 0.0
2017-Aug-21 10:00N 35°38' E 139°45'0 0.0
2017-Aug-21 09:31N 35°38' E 139°45'0 0.0
2017-Aug-21 09:00N 35°38' E 139°45'0 0.0
2017-Aug-21 08:23N 35°38' E 139°45'0 0.0
2017-Aug-21 07:54N 35°38' E 139°45'0 0.0
2017-Aug-21 07:28N 35°38' E 139°45'0 0.0
2017-Aug-21 06:57N 35°38' E 139°45'0 0.0
2017-Aug-21 06:30N 35°38' E 139°45'0 0.1
2017-Aug-21 06:00N 35°38' E 139°46'0 0.1
2017-Aug-21 05:29N 35°38' E 139°45'0 0.0
2017-Aug-21 04:56N 35°38' E 139°45'0 0.0
2017-Aug-21 04:30N 35°38' E 139°45'0 0.0
2017-Aug-21 03:49N 35°38' E 139°45'0 0.0
2017-Aug-21 03:29N 35°38' E 139°45'0 0.0
2017-Aug-21 02:56N 35°38' E 139°45'0 0.0
2017-Aug-21 02:27N 35°38' E 139°45'0 0.0
2017-Aug-21 01:59N 35°38' E 139°45'0 0.0
2017-Aug-21 01:04N 35°38' E 139°45'0 0.0
2017-Aug-21 00:46N 35°38' E 139°45'0 0.0
2017-Aug-21 00:30N 35°38' E 139°45'0 0.0
2017-Aug-20 23:59N 35°38' E 139°45'0 0.0
2017-Aug-20 23:29N 35°38' E 139°45'0 0.0
2017-Aug-20 22:59N 35°38' E 139°45'0 0.0
2017-Aug-20 22:30N 35°38' E 139°45'0 0.0
2017-Aug-20 22:01N 35°38' E 139°45'0 0.0
2017-Aug-20 21:31N 35°38' E 139°45'0 0.0
2017-Aug-20 21:00N 35°38' E 139°45'0 0.0
2017-Aug-20 20:31N 35°38' E 139°45'0 0.0
2017-Aug-20 20:01N 35°38' E 139°45'0 0.0
2017-Aug-20 19:31N 35°38' E 139°45'0 0.0
2017-Aug-20 19:01N 35°38' E 139°45'0 0.0
2017-Aug-20 18:30N 35°38' E 139°45'0 0.0
2017-Aug-20 18:01N 35°38' E 139°45'0 0.0
2017-Aug-20 17:31N 35°38' E 139°45'0 0.0
2017-Aug-20 17:01N 35°38' E 139°45'0 0.0
2017-Aug-20 16:31N 35°38' E 139°45'0 0.0
2017-Aug-20 16:01N 35°38' E 139°45'0 0.0
2017-Aug-20 15:31N 35°38' E 139°45'0 0.0
2017-Aug-20 15:00N 35°38' E 139°45'0 0.0
2017-Aug-20 14:31N 35°38' E 139°45'0 0.0
2017-Aug-20 14:01N 35°38' E 139°45'0 0.0
2017-Aug-20 13:31N 35°38' E 139°45'0 0.0
2017-Aug-20 13:01N 35°38' E 139°45'0 0.0
2017-Aug-20 12:31N 35°38' E 139°45'0 0.0
2017-Aug-20 12:01N 35°38' E 139°45'0 0.0
2017-Aug-20 11:30N 35°38' E 139°45'0 0.1
2017-Aug-20 11:00N 35°38' E 139°46'0 0.1
2017-Aug-20 10:31N 35°38' E 139°45'2 3.2
2017-Aug-20 10:01N 35°37' E 139°46'0 0.6
2017-Aug-20 09:31N 35°36' E 139°46'2 4.8
2017-Aug-20 09:01N 35°35' E 139°48'1 2.5
2017-Aug-20 08:30N 35°35' E 139°47'3 5.6
2017-Aug-20 07:59N 35°38' E 139°45'0 0.0
2017-Aug-20 07:30N 35°38' E 139°45'0 0.0
2017-Aug-20 06:56N 35°38' E 139°45'0 0.0
2017-Aug-20 06:30N 35°38' E 139°45'0 0.0
2017-Aug-20 06:00N 35°38' E 139°45'0 0.0
2017-Aug-20 05:31N 35°38' E 139°45'0 0.0
2017-Aug-20 05:01N 35°38' E 139°45'0 0.0
2017-Aug-20 04:30N 35°38' E 139°45'0 0.0
2017-Aug-20 04:00N 35°38' E 139°45'0 0.0
2017-Aug-20 03:25N 35°38' E 139°45'0 0.0
2017-Aug-20 02:55N 35°38' E 139°45'0 0.0
2017-Aug-20 01:30N 35°38' E 139°45'0 0.0
2017-Aug-20 00:58N 35°38' E 139°45'0 0.0
2017-Aug-20 00:30N 35°38' E 139°45'0 0.0
2017-Aug-19 23:59N 35°38' E 139°45'1 1.3
2017-Aug-19 23:31N 35°38' E 139°46'1 2.9
2017-Aug-19 23:01N 35°36' E 139°46'2 3.9
2017-Aug-19 22:30N 35°35' E 139°48'1 2.8
2017-Aug-19 22:00N 35°36' E 139°46'0 0.0
2017-Aug-19 21:30N 35°36' E 139°46'0 0.0
2017-Aug-19 21:01N 35°36' E 139°46'1 1.7
2017-Aug-19 20:30N 35°36' E 139°47'2 4.4
2017-Aug-19 20:00N 35°38' E 139°45'3 5.2
2017-Aug-19 19:30N 35°36' E 139°47'1 2.2
2017-Aug-19 19:01N 35°37' E 139°46'1 1.0
2017-Aug-19 18:31N 35°37' E 139°46'1 2.2
2017-Aug-19 18:01N 35°38' E 139°45'0 0.0
2017-Aug-19 17:31N 35°38' E 139°45'0 0.0
2017-Aug-19 17:00N 35°38' E 139°45'0 0.0
2017-Aug-19 16:31N 35°38' E 139°45'0 0.0
2017-Aug-19 16:01N 35°38' E 139°45'0 0.0
2017-Aug-19 15:31N 35°38' E 139°45'0 0.0
2017-Aug-19 15:01N 35°38' E 139°45'0 0.0
2017-Aug-19 14:01N 35°38' E 139°46'0 0.1
2017-Aug-19 13:24N 35°38' E 139°45'0 0.0
2017-Aug-19 12:52N 35°38' E 139°45'0 0.0
2017-Aug-19 12:29N 35°38' E 139°45'0 0.0
2017-Aug-19 11:55N 35°38' E 139°45'0 0.0
2017-Aug-19 11:15N 35°38' E 139°45'0 0.0
2017-Aug-19 11:00N 35°38' E 139°45'0 0.0
2017-Aug-19 10:30N 35°38' E 139°45'0 0.0
2017-Aug-19 09:57N 35°38' E 139°45'0 0.0
2017-Aug-19 09:30N 35°38' E 139°45'0 0.0
2017-Aug-19 09:01N 35°38' E 139°45'0 0.0
2017-Aug-19 08:29N 35°38' E 139°45'0 0.0
2017-Aug-19 08:01N 35°38' E 139°45'0 0.0
2017-Aug-19 07:31N 35°38' E 139°45'0 0.0
2017-Aug-19 07:00N 35°38' E 139°45'0 0.0
2017-Aug-19 06:31N 35°38' E 139°45'0 0.0
2017-Aug-19 06:00N 35°38' E 139°45'0 0.0
2017-Aug-19 05:30N 35°38' E 139°45'0 0.0
2017-Aug-19 05:00N 35°38' E 139°45'0 0.0
2017-Aug-19 04:30N 35°38' E 139°45'0 0.0
2017-Aug-19 04:00N 35°38' E 139°45'0 0.0
2017-Aug-19 03:30N 35°38' E 139°45'0 0.0
2017-Aug-19 03:00N 35°38' E 139°45'0 0.0
2017-Aug-19 02:31N 35°38' E 139°45'0 0.0
2017-Aug-19 02:00N 35°38' E 139°45'0 0.0
2017-Aug-19 01:30N 35°38' E 139°45'0 0.0
2017-Aug-19 01:00N 35°38' E 139°45'0 0.0
2017-Aug-19 00:30N 35°38' E 139°45'1 3.0
2017-Aug-19 00:01N 35°37' E 139°46'1 2.1
2017-Aug-18 23:31N 35°36' E 139°47'2 3.3
2017-Aug-18 23:01N 35°35' E 139°48'3 6.2
2017-Aug-18 22:31N 35°37' E 139°46'1 2.0
2017-Aug-18 21:58N 35°38' E 139°45'0 0.0
2017-Aug-18 21:26N 35°38' E 139°45'0 0.0
2017-Aug-18 21:00N 35°38' E 139°45'0 0.0
2017-Aug-18 20:30N 35°38' E 139°45'0 0.0
2017-Aug-18 20:00N 35°38' E 139°45'0 0.0
2017-Aug-18 19:30N 35°38' E 139°45'0 0.0
2017-Aug-18 19:01N 35°38' E 139°45'0 0.0
2017-Aug-18 18:30N 35°38' E 139°45'0 0.0
2017-Aug-18 18:01N 35°38' E 139°45'0 0.0
2017-Aug-18 17:31N 35°38' E 139°45'0 0.0
2017-Aug-18 17:00N 35°38' E 139°45'0 0.0
2017-Aug-18 16:31N 35°38' E 139°45'0 0.0
2017-Aug-18 16:01N 35°38' E 139°45'0 0.0
2017-Aug-18 15:30N 35°38' E 139°45'0 0.0
2017-Aug-18 14:58N 35°38' E 139°45'0 0.0
2017-Aug-18 14:30N 35°38' E 139°45'0 0.0
2017-Aug-18 12:53N 35°38' E 139°45'0 0.0
2017-Aug-18 12:30N 35°38' E 139°45'0 0.0
2017-Aug-18 11:56N 35°38' E 139°45'0 0.0
2017-Aug-18 11:30N 35°38' E 139°45'0 0.0
2017-Aug-18 10:25N 35°38' E 139°45'1 3.3
2017-Aug-18 10:00N 35°37' E 139°46'1 2.2
2017-Aug-18 09:31N 35°36' E 139°47'1 2.2
2017-Aug-18 09:00N 35°35' E 139°48'0 0.5
2017-Aug-18 08:31N 35°35' E 139°47'1 1.2
2017-Aug-18 08:00N 35°35' E 139°47'0 0.0
2017-Aug-18 07:30N 35°35' E 139°47'1 1.5
2017-Aug-18 07:01N 35°36' E 139°46'1 2.3
2017-Aug-18 06:30N 35°37' E 139°46'1 1.7
2017-Aug-18 05:52N 35°38' E 139°45'0 0.0
2017-Aug-18 05:28N 35°38' E 139°45'0 0.0
2017-Aug-18 04:57N 35°38' E 139°45'0 0.0
2017-Aug-18 03:56N 35°38' E 139°45'0 0.0
2017-Aug-18 03:21N 35°38' E 139°45'0 0.0
2017-Aug-18 02:59N 35°38' E 139°45'0 0.0
2017-Aug-18 02:29N 35°38' E 139°45'0 0.0
2017-Aug-18 01:57N 35°38' E 139°45'0 0.0
2017-Aug-18 01:21N 35°38' E 139°45'0 0.0
2017-Aug-17 21:46N 35°38' E 139°45'0 0.0
2017-Aug-17 21:13N 35°38' E 139°45'0 0.0
2017-Aug-17 20:58N 35°38' E 139°45'0 0.0
2017-Aug-17 20:28N 35°38' E 139°45'0 0.0
2017-Aug-17 19:59N 35°38' E 139°45'0 0.0
2017-Aug-17 19:30N 35°38' E 139°45'0 0.0
2017-Aug-17 19:00N 35°38' E 139°45'0 0.0
2017-Aug-17 18:30N 35°38' E 139°45'0 0.0
2017-Aug-17 18:01N 35°38' E 139°45'0 0.0
2017-Aug-17 17:30N 35°38' E 139°45'0 0.0
2017-Aug-17 17:01N 35°38' E 139°45'0 0.0
2017-Aug-17 16:31N 35°38' E 139°45'0 0.0
2017-Aug-17 16:01N 35°38' E 139°45'0 0.0
2017-Aug-17 15:31N 35°38' E 139°45'0 0.1
2017-Aug-17 15:01N 35°38' E 139°46'0 0.1
2017-Aug-17 14:31N 35°38' E 139°45'0 0.0
2017-Aug-17 14:01N 35°38' E 139°45'0 0.0
2017-Aug-17 13:30N 35°38' E 139°45'0 0.3
2017-Aug-17 13:00N 35°38' E 139°45'2 3.7
2017-Aug-17 12:31N 35°37' E 139°47'1 2.1
2017-Aug-17 12:01N 35°36' E 139°47'1 2.3
2017-Aug-17 11:27N 35°34' E 139°48'2 3.9
2017-Aug-17 11:00N 35°36' E 139°46'0 0.0
2017-Aug-17 10:31N 35°36' E 139°46'0 0.0
2017-Aug-17 10:00N 35°36' E 139°46'0 0.0
2017-Aug-17 09:30N 35°36' E 139°46'1 1.8
2017-Aug-17 09:00N 35°36' E 139°47'0 0.5
2017-Aug-17 08:30N 35°36' E 139°47'2 3.7
2017-Aug-17 08:01N 35°35' E 139°48'2 4.9
2017-Aug-17 07:31N 35°36' E 139°46'2 3.3
2017-Aug-17 06:57N 35°38' E 139°45'0 0.0
2017-Aug-17 06:30N 35°38' E 139°45'0 0.0
2017-Aug-17 05:58N 35°38' E 139°45'0 0.0
2017-Aug-17 05:27N 35°38' E 139°45'0 0.0
2017-Aug-17 05:00N 35°38' E 139°45'0 0.0
2017-Aug-17 04:30N 35°38' E 139°45'0 0.0
2017-Aug-17 04:00N 35°38' E 139°45'0 0.0
2017-Aug-17 03:28N 35°38' E 139°45'0 0.0
2017-Aug-17 02:59N 35°38' E 139°45'0 0.0
2017-Aug-17 02:30N 35°38' E 139°45'0 0.0
2017-Aug-17 01:56N 35°38' E 139°45'0 0.0
2017-Aug-17 01:28N 35°38' E 139°45'0 0.0
2017-Aug-17 00:59N 35°38' E 139°45'0 0.0
2017-Aug-17 00:28N 35°38' E 139°45'0 0.0
2017-Aug-16 23:57N 35°38' E 139°45'0 0.0
2017-Aug-16 23:28N 35°38' E 139°45'0 0.0
2017-Aug-16 23:00N 35°38' E 139°45'0 0.0
2017-Aug-16 22:30N 35°38' E 139°45'0 0.0
2017-Aug-16 22:01N 35°38' E 139°45'0 0.0
2017-Aug-16 21:30N 35°38' E 139°45'0 0.0
2017-Aug-16 21:00N 35°38' E 139°45'0 0.0
2017-Aug-16 20:29N 35°38' E 139°45'0 0.0
2017-Aug-16 20:00N 35°38' E 139°45'0 0.0
2017-Aug-16 19:30N 35°38' E 139°45'0 0.0
2017-Aug-16 18:59N 35°38' E 139°45'0 0.0
2017-Aug-16 18:30N 35°38' E 139°45'0 0.1
2017-Aug-16 18:00N 35°38' E 139°46'0 0.1
2017-Aug-16 17:30N 35°38' E 139°45'0 0.0
2017-Aug-16 17:00N 35°38' E 139°45'0 0.0
2017-Aug-16 16:31N 35°38' E 139°45'0 0.0
2017-Aug-16 16:01N 35°38' E 139°45'0 0.0
2017-Aug-16 15:30N 35°38' E 139°45'0 0.0
2017-Aug-16 14:54N 35°38' E 139°45'0 0.0
2017-Aug-16 14:27N 35°38' E 139°45'0 0.0
2017-Aug-16 14:00N 35°38' E 139°45'0 0.0
2017-Aug-16 13:29N 35°38' E 139°45'0 0.0
2017-Aug-16 12:58N 35°38' E 139°45'0 0.0
2017-Aug-16 12:30N 35°38' E 139°45'0 0.0
2017-Aug-16 11:58N 35°38' E 139°45'0 0.0
2017-Aug-16 11:30N 35°38' E 139°45'0 0.0
2017-Aug-16 11:00N 35°38' E 139°45'3 5.1
2017-Aug-16 10:31N 35°36' E 139°47'1 1.8
2017-Aug-16 10:00N 35°37' E 139°46'1 2.1
2017-Aug-16 09:30N 35°38' E 139°46'1 1.3
2017-Aug-16 09:01N 35°38' E 139°46'0 0.1
2017-Aug-16 08:31N 35°38' E 139°45'0 0.0
2017-Aug-16 08:00N 35°38' E 139°45'1 1.1
2017-Aug-16 07:30N 35°38' E 139°46'1 1.7
2017-Aug-16 07:00N 35°39' E 139°46'0 0.0
2017-Aug-16 06:30N 35°39' E 139°46'0 0.0
2017-Aug-16 06:00N 35°39' E 139°46'0 0.0
2017-Aug-16 05:31N 35°39' E 139°46'1 1.1
2017-Aug-16 05:00N 35°39' E 139°46'1 1.7
2017-Aug-16 04:30N 35°38' E 139°45'0 0.0
2017-Aug-16 04:01N 35°38' E 139°45'0 0.0
2017-Aug-16 03:30N 35°38' E 139°45'0 0.0
2017-Aug-16 03:00N 35°38' E 139°45'0 0.0
2017-Aug-16 02:30N 35°38' E 139°45'0 0.0
2017-Aug-16 02:00N 35°38' E 139°45'0 0.0
2017-Aug-16 01:31N 35°38' E 139°45'0 0.0
2017-Aug-16 01:01N 35°38' E 139°45'0 0.0
2017-Aug-16 00:30N 35°38' E 139°45'0 0.0
2017-Aug-16 00:01N 35°38' E 139°45'0 0.0
2017-Aug-15 23:30N 35°38' E 139°45'0 0.0
2017-Aug-15 22:58N 35°38' E 139°45'0 0.0
2017-Aug-15 22:29N 35°38' E 139°45'0 0.0
2017-Aug-15 22:00N 35°38' E 139°45'0 0.0
2017-Aug-15 21:30N 35°38' E 139°45'0 0.0
2017-Aug-15 21:00N 35°38' E 139°45'0 0.0
2017-Aug-15 20:31N 35°38' E 139°45'0 0.0
2017-Aug-15 20:01N 35°38' E 139°45'0 0.0
2017-Aug-15 19:31N 35°38' E 139°45'0 0.0
2017-Aug-15 19:01N 35°38' E 139°45'0 0.0
2017-Aug-15 18:31N 35°38' E 139°45'0 0.0
2017-Aug-15 18:01N 35°38' E 139°45'0 0.0
2017-Aug-15 17:31N 35°38' E 139°45'0 0.0
2017-Aug-15 17:01N 35°38' E 139°45'0 0.0
2017-Aug-15 16:31N 35°38' E 139°45'0 0.0
2017-Aug-15 16:01N 35°38' E 139°45'0 0.0
2017-Aug-15 15:31N 35°38' E 139°45'0 0.0
2017-Aug-15 15:01N 35°38' E 139°45'0 0.0
2017-Aug-15 14:30N 35°38' E 139°45'0 0.0
2017-Aug-15 14:01N 35°38' E 139°45'0 0.0
2017-Aug-15 13:31N 35°38' E 139°45'0 0.0
2017-Aug-15 13:01N 35°38' E 139°45'0 0.0
2017-Aug-15 12:29N 35°38' E 139°45'0 0.0
2017-Aug-15 12:01N 35°38' E 139°45'0 0.1
2017-Aug-15 11:31N 35°38' E 139°46'0 0.1
2017-Aug-15 11:00N 35°38' E 139°45'0 0.0
2017-Aug-15 10:30N 35°38' E 139°45'0 0.0
2017-Aug-15 10:01N 35°38' E 139°45'0 0.0
2017-Aug-15 09:29N 35°38' E 139°45'3 5.5
2017-Aug-15 09:00N 35°36' E 139°46'1 1.7
2017-Aug-15 08:30N 35°35' E 139°47'2 3.3
2017-Aug-15 08:00N 35°34' E 139°49'2 3.6
2017-Aug-15 07:31N 35°36' E 139°47'0 0.9
2017-Aug-15 07:01N 35°36' E 139°48'1 2.3
2017-Aug-15 06:30N 35°35' E 139°48'0 0.8
2017-Aug-15 06:01N 35°35' E 139°47'3 6.4
2017-Aug-15 05:31N 35°38' E 139°46'0 0.9
2017-Aug-15 05:00N 35°38' E 139°45'0 0.0
2017-Aug-15 04:30N 35°38' E 139°45'0 0.0
2017-Aug-15 03:50N 35°38' E 139°45'0 0.0
2017-Aug-15 03:31N 35°38' E 139°45'0 0.0
2017-Aug-15 03:00N 35°38' E 139°45'0 0.0
2017-Aug-15 02:30N 35°38' E 139°45'0 0.0
2017-Aug-15 02:01N 35°38' E 139°45'0 0.0
2017-Aug-15 01:30N 35°38' E 139°45'0 0.0
2017-Aug-15 01:00N 35°38' E 139°45'0 0.0
2017-Aug-15 00:31N 35°38' E 139°45'0 0.0
2017-Aug-15 00:01N 35°38' E 139°45'0 0.0
2017-Aug-14 23:30N 35°38' E 139°45'0 0.0
2017-Aug-14 23:01N 35°38' E 139°45'0 0.0
2017-Aug-14 22:30N 35°38' E 139°45'0 0.0
2017-Aug-14 21:59N 35°38' E 139°45'0 0.0
2017-Aug-14 21:31N 35°38' E 139°45'0 0.0
2017-Aug-14 21:01N 35°38' E 139°45'0 0.0
2017-Aug-14 20:31N 35°38' E 139°45'0 0.0
2017-Aug-14 20:00N 35°38' E 139°45'2 4.9
2017-Aug-14 19:31N 35°36' E 139°47'0 0.5
2017-Aug-14 19:00N 35°36' E 139°47'2 4.4
2017-Aug-14 18:30N 35°38' E 139°45'0 0.0
2017-Aug-14 18:01N 35°38' E 139°45'0 0.0
2017-Aug-14 17:30N 35°38' E 139°45'0 0.0
2017-Aug-14 17:01N 35°38' E 139°45'0 0.0
2017-Aug-14 16:31N 35°38' E 139°45'0 0.0
2017-Aug-14 16:01N 35°38' E 139°45'0 0.0
2017-Aug-14 15:30N 35°38' E 139°45'0 0.0
2017-Aug-14 15:00N 35°38' E 139°45'0 0.0
2017-Aug-14 14:30N 35°38' E 139°45'0 0.0
2017-Aug-14 14:00N 35°38' E 139°45'0 0.0
2017-Aug-14 13:30N 35°38' E 139°45'0 0.0
2017-Aug-14 13:00N 35°38' E 139°45'0 0.0
2017-Aug-14 12:31N 35°38' E 139°45'0 0.0
2017-Aug-14 12:00N 35°38' E 139°45'0 0.0
2017-Aug-14 11:31N 35°38' E 139°45'0 0.0
2017-Aug-14 11:00N 35°38' E 139°45'0 0.0
2017-Aug-14 10:31N 35°38' E 139°45'0 0.0
2017-Aug-14 10:01N 35°38' E 139°45'0 0.0
2017-Aug-14 09:30N 35°38' E 139°45'0 0.0
2017-Aug-14 09:01N 35°38' E 139°45'0 0.0
2017-Aug-14 08:31N 35°38' E 139°45'0 0.0
2017-Aug-14 08:00N 35°38' E 139°45'0 0.1
2017-Aug-14 07:30N 35°38' E 139°46'0 0.1
2017-Aug-14 07:00N 35°38' E 139°45'0 0.0
2017-Aug-14 06:31N 35°38' E 139°45'0 0.0
2017-Aug-14 06:00N 35°38' E 139°45'0 0.0
2017-Aug-14 05:30N 35°38' E 139°45'0 0.0
2017-Aug-14 04:58N 35°38' E 139°45'0 0.0
2017-Aug-14 04:29N 35°38' E 139°45'0 0.1
2017-Aug-14 04:00N 35°38' E 139°46'0 0.1
2017-Aug-14 03:30N 35°38' E 139°45'0 0.0
2017-Aug-14 02:57N 35°38' E 139°45'0 0.0
2017-Aug-14 02:30N 35°38' E 139°45'0 0.0
2017-Aug-14 02:01N 35°38' E 139°45'0 0.0
2017-Aug-14 01:31N 35°38' E 139°45'0 0.0
2017-Aug-14 01:01N 35°38' E 139°45'0 0.0
2017-Aug-14 00:31N 35°38' E 139°45'0 0.0
2017-Aug-14 00:01N 35°38' E 139°45'0 0.0
2017-Aug-13 23:30N 35°38' E 139°45'3 5.6
2017-Aug-13 23:01N 35°36' E 139°47'0 0.8
2017-Aug-13 22:31N 35°35' E 139°47'1 2.9
2017-Aug-13 22:00N 35°35' E 139°48'2 3.1
2017-Aug-13 21:31N 35°36' E 139°47'3 5.3
2017-Aug-13 21:00N 35°38' E 139°46'0 0.2
2017-Aug-13 20:31N 35°38' E 139°45'0 0.0
2017-Aug-13 20:00N 35°38' E 139°45'0 0.0
2017-Aug-13 19:30N 35°38' E 139°45'0 0.0
2017-Aug-13 19:01N 35°38' E 139°45'0 0.0
2017-Aug-13 18:31N 35°38' E 139°45'0 0.0
2017-Aug-13 18:01N 35°38' E 139°45'0 0.0
2017-Aug-13 17:31N 35°38' E 139°45'0 0.0
2017-Aug-13 17:01N 35°38' E 139°45'0 0.0
2017-Aug-13 16:31N 35°38' E 139°45'0 0.0
2017-Aug-13 16:01N 35°38' E 139°45'0 0.0
2017-Aug-13 15:30N 35°38' E 139°45'0 0.0
2017-Aug-13 15:01N 35°38' E 139°45'0 0.0
2017-Aug-13 14:31N 35°38' E 139°45'0 0.0
2017-Aug-13 14:01N 35°38' E 139°45'0 0.0
2017-Aug-13 13:31N 35°38' E 139°45'0 0.0
2017-Aug-13 13:01N 35°38' E 139°45'0 0.0
2017-Aug-13 12:31N 35°38' E 139°45'0 0.0
2017-Aug-13 12:00N 35°38' E 139°45'0 0.0
2017-Aug-13 11:31N 35°38' E 139°45'0 0.0
2017-Aug-13 11:01N 35°38' E 139°45'0 0.0
2017-Aug-13 10:30N 35°38' E 139°45'0 0.0
2017-Aug-13 10:01N 35°38' E 139°45'0 0.0
2017-Aug-13 09:30N 35°38' E 139°45'2 3.8
2017-Aug-13 09:00N 35°36' E 139°46'1 1.6
2017-Aug-13 08:31N 35°37' E 139°46'1 2.3
2017-Aug-13 08:01N 35°38' E 139°45'0 0.0
2017-Aug-13 07:30N 35°38' E 139°45'0 0.0
2017-Aug-13 06:58N 35°38' E 139°45'0 0.0
2017-Aug-13 06:31N 35°38' E 139°45'0 0.0
2017-Aug-13 06:00N 35°38' E 139°45'0 0.0
2017-Aug-13 05:30N 35°38' E 139°45'0 0.0
2017-Aug-13 04:55N 35°38' E 139°45'0 0.0
2017-Aug-13 04:27N 35°38' E 139°45'0 0.0
2017-Aug-13 04:00N 35°38' E 139°45'0 0.0
2017-Aug-13 03:30N 35°38' E 139°45'0 0.0
2017-Aug-13 03:00N 35°38' E 139°45'0 0.0
2017-Aug-13 02:31N 35°38' E 139°45'0 0.0
2017-Aug-13 02:01N 35°38' E 139°45'0 0.0
2017-Aug-13 01:31N 35°38' E 139°45'0 0.0
2017-Aug-13 01:01N 35°38' E 139°45'0 0.0
2017-Aug-13 00:30N 35°38' E 139°45'1 0.4
2017-Aug-12 23:12N 35°38' E 139°46'2 2.9
2017-Aug-12 22:34N 35°36' E 139°46'1 4.4
2017-Aug-12 22:16N 35°35' E 139°48'1 3.4
2017-Aug-12 22:00N 35°34' E 139°48'3 2.0
2017-Aug-12 20:44N 35°37' E 139°47'0 0.5
2017-Aug-12 20:30N 35°37' E 139°47'1 1.7
2017-Aug-12 20:00N 35°37' E 139°46'1 0.1
2017-Aug-12 12:53N 35°38' E 139°45'0 0.0
2017-Aug-12 12:31N 35°38' E 139°45'0 0.0
2017-Aug-12 12:01N 35°38' E 139°45'0 0.0
2017-Aug-12 11:30N 35°38' E 139°45'0 0.0
2017-Aug-12 11:01N 35°38' E 139°45'0 0.0
2017-Aug-12 10:30N 35°38' E 139°45'0 0.0
2017-Aug-12 10:00N 35°38' E 139°45'0 0.0
2017-Aug-12 09:31N 35°38' E 139°45'0 0.0
2017-Aug-12 09:01N 35°38' E 139°45'0 0.0
2017-Aug-12 08:30N 35°38' E 139°45'0 0.0
2017-Aug-12 08:01N 35°38' E 139°45'0 0.0
2017-Aug-12 07:28N 35°38' E 139°45'0 0.0
2017-Aug-12 07:01N 35°38' E 139°45'0 0.0
2017-Aug-12 06:30N 35°38' E 139°45'0 0.0
2017-Aug-12 05:59N 35°38' E 139°45'0 0.0
2017-Aug-12 05:30N 35°38' E 139°45'0 0.0
2017-Aug-12 04:59N 35°38' E 139°45'0 0.0
2017-Aug-12 04:31N 35°38' E 139°45'0 0.0
2017-Aug-12 03:58N 35°38' E 139°45'0 0.0
2017-Aug-12 03:30N 35°38' E 139°45'0 0.0
2017-Aug-12 02:58N 35°38' E 139°45'0 0.0
2017-Aug-12 02:28N 35°38' E 139°45'0 0.0
2017-Aug-12 01:55N 35°38' E 139°45'0 0.0
2017-Aug-12 01:30N 35°38' E 139°45'  

Dump ship's entire track history